Monona, Iowa
Current Conditions -  °F | °C
As of 8:15 PM on Saturday 22 Nov 2014 (Local Time) from KPDC Reporting Station
Haze Haze  
Wind Chill: 48°   Ceiling: 700
Heat Index: 50°   Visibility: 5mi
Dew Point: 47°   Wind: 5mph
Humidity: 91%   Direction: 170°S
Pressure: 29.71"   Gusts: NA
Location:  43.05°N, 91.39°W
Report Text: KPDC 230215Z AUTO 17004KT 5SM BR OVC007 10/08 A2971 RMK AO2 T00980084
Loading
Personal Weather Stations






























Interactive Weather Map New forecast layout! Learn more

10-Day Weather Forecast

Advertisements
Track Severe Weather on mobile